Sallisaw, OK (74955)

12:28 AM CDT on April 02, 2015 (GMT -0500)
Sallisaw/Ross | | Change Station
CLOSE
Current Station
Personal Weather Station
Location: Sallisaw, OK
Elevation: 554 ft
Nearby Weather Stations

Elev 554 ft 35.46 °N, 94.80 °W | Updated 3 minutes ago

Clear
Clear
65.3 °F
Feels Like 65.3 °F
N
2.0
Wind Variable Wind from ESE
Gusts 11.0 mph

Today
High -- | Low -- °F
--% Chance of Precip.
Yesterday
High -- | Low -- °F
Precip. -- in
7:04 AM 7:41 PM
Waxing Gibbous, 95% visible
Pressure 29.84 in
Visibility 10.0 miles
Clouds Clear
Dew Point 60 °F
Humidity 84%
Rainfall 0.00 in
Snow Depth Not available.
UV 0 out of 12
Pollen 10.40 out of 12
Air Quality Not available.
Flu Activity Not available.
METAR KJSV 020515Z AUTO 06004KT 10SM CLR 17/15 A2984 RMK AO2

More Conditions Fewer Conditions

Pressure 29.84 in
Visibility 10.0 miles
Clouds Clear
Dew Point 60 °F
Humidity 84%
Rainfall 0.00 in
Snow Depth Not available.
UV 0 out of 12
Pollen 10.40 out of 12
Air Quality Not available.
Flu Activity Not available.
METAR KJSV 020515Z AUTO 06004KT 10SM CLR 17/15 A2984 RMK AO2

More Conditions Fewer Conditions

Nowcast | as of 11:57 PM CDT on April 1, 2015

At 11:55 PM...Doppler radar detected a cluster of showers and thunderstorms over north central Oklahoma...moving east at about 20 mph. Through 1 am...the cluster of showers and storms will move into Osage and Pawnee counties. Wind gusts from 40 to 50 mph are possible as these showers and storms gradually decay as they move east. Rainfall amounts will remain light...at only a few hundredths of an inch.

×

10-Day Weather Forecast

Almanac

Astronomy

Apr. 02, 2015 Rise Set
Actual Time
Civil Twilight
Nautical Twilight
Astronomical Twilight
Moon
Length of Visible Light
Length of Day
Tomorrow will be .
, % of the Moon is Illuminated

Today's Extremes

State Highs State Lows

Community

WunderPhotos

Upload Photos

1,810,201 photos uploaded!

WunderBlogs® & News

Nearby

Air Quality

  Air Quality AQ Index Pollutant
Not available.

Snow Depth

Station Depth Elevation

Earthquake Activity

City Distance Mag. Time & Date
Minimum magnitude displayed is 2.5.

Coastal Water Temperatures

Place Temperature

Stations

Nearby Weather Stations

Station Location Temp. Windchill Dew Point Humidity Wind Precip. Elev Updated Type